createdAt,value
2023-04-27T00:00:50.897Z,27.61
2023-04-27T00:01:50.974Z,27.61
2023-04-27T00:02:51.134Z,27.60
2023-04-27T00:03:51.090Z,27.61
2023-04-27T00:04:51.246Z,27.61
2023-04-27T00:05:51.226Z,27.62
2023-04-27T00:06:51.104Z,27.62
2023-04-27T00:07:51.144Z,27.61
2023-04-27T00:08:51.171Z,27.61
2023-04-27T00:09:51.216Z,27.61
2023-04-27T00:10:51.248Z,27.61
2023-04-27T00:11:51.387Z,27.62
2023-04-27T00:12:51.344Z,27.62
2023-04-27T00:13:51.365Z,27.62
2023-04-27T00:14:51.468Z,27.62
2023-04-27T00:15:51.443Z,27.61
2023-04-27T00:16:51.571Z,27.62
2023-04-27T00:17:51.635Z,27.62
2023-04-27T00:18:51.576Z,27.62
2023-04-27T00:19:51.610Z,27.62
2023-04-27T00:20:51.642Z,27.62
2023-04-27T00:21:51.755Z,27.62
2023-04-27T00:22:51.723Z,27.63
2023-04-27T00:23:51.780Z,27.62
2023-04-27T00:24:51.874Z,27.62
2023-04-27T00:25:51.876Z,27.62
2023-04-27T00:26:51.897Z,27.62
2023-04-27T00:27:51.935Z,27.61
2023-04-27T00:28:51.960Z,27.61
2023-04-27T00:29:52.053Z,27.61
2023-04-27T00:30:52.035Z,27.60
2023-04-27T00:31:52.185Z,27.58
2023-04-27T00:32:52.256Z,27.58
2023-04-27T00:33:52.189Z,27.57
2023-04-27T00:34:52.190Z,27.57
2023-04-27T00:35:52.220Z,27.57
2023-04-27T00:36:52.249Z,27.56
2023-04-27T00:37:52.313Z,27.55
2023-04-27T00:38:52.419Z,27.55
2023-04-27T00:39:52.384Z,27.55
2023-04-27T00:40:52.489Z,27.55
2023-04-27T00:41:52.474Z,27.54
2023-04-27T00:42:52.637Z,27.55
2023-04-27T00:43:52.562Z,27.55
2023-04-27T00:44:52.597Z,27.55
2023-04-27T00:45:52.718Z,27.54
2023-04-27T00:46:52.678Z,27.53
2023-04-27T00:47:52.834Z,27.53
2023-04-27T00:48:52.766Z,27.54
2023-04-27T00:49:52.832Z,27.55
2023-04-27T00:50:52.869Z,27.57
2023-04-27T00:51:52.876Z,27.58
2023-04-27T00:52:52.886Z,27.59
2023-04-27T00:53:53.224Z,27.59
2023-04-27T00:54:53.003Z,27.59
2023-04-27T00:55:52.993Z,27.61
2023-04-27T00:56:53.061Z,27.61
2023-04-27T00:57:53.091Z,27.61
2023-04-27T00:58:53.091Z,27.62
2023-04-27T00:59:53.228Z,27.62
2023-04-27T01:00:53.179Z,27.61
2023-04-27T01:01:53.216Z,27.60
2023-04-27T01:02:53.405Z,27.59
2023-04-27T01:03:53.461Z,27.57
2023-04-27T01:04:53.347Z,27.57
2023-04-27T01:05:53.386Z,27.57
2023-04-27T01:06:53.440Z,27.56
2023-04-27T01:07:53.464Z,27.56
2023-04-27T01:08:53.496Z,27.56
2023-04-27T01:09:53.527Z,27.54
2023-04-27T01:10:53.533Z,27.54
2023-04-27T01:11:53.637Z,27.56
2023-04-27T01:12:53.649Z,27.57
2023-04-27T01:13:53.689Z,27.59
2023-04-27T01:14:53.847Z,27.58
2023-04-27T01:17:12.860Z,27.50
2023-04-27T01:18:13.113Z,27.52
2023-04-27T01:19:13.098Z,27.53
2023-04-27T01:20:13.064Z,27.53
2023-04-27T01:21:12.731Z,27.55
2023-04-27T01:22:12.649Z,27.54
2023-04-27T01:23:14.212Z,27.55
2023-04-27T01:24:12.644Z,27.55
2023-04-27T01:25:12.654Z,27.55
2023-04-27T01:26:12.761Z,27.54
2023-04-27T01:27:12.620Z,27.55
2023-04-27T01:28:12.786Z,27.54
2023-04-27T01:29:12.823Z,27.53
2023-04-27T01:30:12.625Z,27.52
2023-04-27T01:31:12.641Z,27.53
2023-04-27T01:32:12.536Z,27.54
2023-04-27T01:33:13.570Z,27.56
2023-04-27T01:34:12.503Z,27.58
2023-04-27T01:35:12.571Z,27.58
2023-04-27T01:36:12.553Z,27.58
2023-04-27T01:37:12.637Z,27.57
2023-04-27T01:38:12.508Z,27.57
2023-04-27T01:39:12.616Z,27.56
2023-04-27T01:40:12.585Z,27.55
2023-04-27T01:41:12.521Z,27.56
2023-04-27T01:42:12.501Z,27.54
2023-04-27T01:43:12.458Z,27.56
2023-04-27T01:44:12.470Z,27.57
2023-04-27T01:45:12.551Z,27.57
2023-04-27T01:46:12.481Z,27.57
2023-04-27T01:47:12.470Z,27.57
2023-04-27T01:48:12.504Z,27.58
2023-04-27T01:49:12.754Z,27.60
2023-04-27T01:50:12.596Z,27.60
2023-04-27T01:51:12.508Z,27.60
2023-04-27T01:52:12.514Z,27.59
2023-04-27T01:53:12.394Z,27.58
2023-04-27T01:54:12.502Z,27.58
2023-04-27T01:55:12.482Z,27.57
2023-04-27T01:56:12.364Z,27.57
2023-04-27T01:57:13.512Z,27.57
2023-04-27T01:58:12.381Z,27.58
2023-04-27T01:59:13.061Z,27.59
2023-04-27T02:00:12.426Z,27.60
2023-04-27T02:01:12.433Z,27.60
2023-04-27T02:02:12.490Z,27.61
2023-04-27T02:03:12.576Z,27.59
2023-04-27T02:04:12.729Z,27.59
2023-04-27T02:05:12.353Z,27.58
2023-04-27T02:06:12.320Z,27.57
2023-04-27T02:07:12.368Z,27.57
2023-04-27T02:08:12.367Z,27.58
2023-04-27T02:09:13.044Z,27.59
2023-04-27T02:10:12.487Z,27.59
2023-04-27T02:11:12.489Z,27.58
2023-04-27T02:12:12.488Z,27.55
2023-04-27T02:13:12.602Z,27.55
2023-04-27T02:14:12.663Z,27.55
2023-04-27T02:15:12.651Z,27.55
2023-04-27T02:16:12.737Z,27.55
2023-04-27T02:17:12.704Z,27.54
2023-04-27T02:18:12.858Z,27.55
2023-04-27T02:19:13.028Z,27.57
2023-04-27T02:20:12.744Z,27.58
2023-04-27T02:21:12.890Z,27.57
2023-04-27T02:22:12.820Z,27.57
2023-04-27T02:23:13.862Z,27.58
2023-04-27T02:24:12.929Z,27.59
2023-04-27T02:25:12.944Z,27.58
2023-04-27T02:26:12.935Z,27.57
2023-04-27T02:27:12.949Z,27.56
2023-04-27T02:28:13.155Z,27.55
2023-04-27T02:29:13.257Z,27.55
2023-04-27T02:30:13.316Z,27.55
2023-04-27T02:31:13.124Z,27.54
2023-04-27T02:32:13.184Z,27.54
2023-04-27T02:33:13.227Z,27.53
2023-04-27T02:34:13.140Z,27.54
2023-04-27T02:35:13.303Z,27.53
2023-04-27T02:36:13.258Z,27.54
2023-04-27T02:37:13.255Z,27.56
2023-04-27T02:38:13.344Z,27.57
2023-04-27T02:39:13.541Z,27.59
2023-04-27T02:40:13.439Z,27.59
2023-04-27T02:41:13.540Z,27.56
2023-04-27T02:42:13.452Z,27.55
2023-04-27T02:43:13.439Z,27.55
2023-04-27T02:44:13.487Z,27.55
2023-04-27T02:45:13.562Z,27.55
2023-04-27T02:46:13.756Z,27.55
2023-04-27T02:47:13.704Z,27.54
2023-04-27T02:48:13.742Z,27.56
2023-04-27T02:49:14.115Z,27.58
2023-04-27T02:50:13.704Z,27.58
2023-04-27T02:51:13.820Z,27.57
2023-04-27T02:52:13.960Z,27.55
2023-04-27T02:53:13.829Z,27.54
2023-04-27T02:54:13.941Z,27.54
2023-04-27T02:55:13.905Z,27.53
2023-04-27T02:56:13.893Z,27.52
2023-04-27T02:57:14.007Z,27.52
2023-04-27T02:58:14.018Z,27.52
2023-04-27T02:59:14.291Z,27.52
2023-04-27T03:00:14.222Z,27.52
2023-04-27T03:01:14.192Z,27.51
2023-04-27T03:02:14.269Z,27.53
2023-04-27T03:03:14.406Z,27.53
2023-04-27T03:04:14.390Z,27.51
2023-04-27T03:05:14.256Z,27.53
2023-04-27T03:06:14.377Z,27.54
2023-04-27T03:07:14.387Z,27.56
2023-04-27T03:08:14.370Z,27.55
2023-04-27T03:09:14.795Z,27.56
2023-04-27T03:10:14.424Z,27.55
2023-04-27T03:11:14.485Z,27.54
2023-04-27T03:12:15.565Z,27.52
2023-04-27T03:13:14.537Z,27.51
2023-04-27T03:14:14.698Z,27.52
2023-04-27T03:15:14.590Z,27.52
2023-04-27T03:16:14.740Z,27.52
2023-04-27T03:17:14.664Z,27.51
2023-04-27T03:18:14.805Z,27.50
2023-04-27T03:19:14.915Z,27.51
2023-04-27T03:20:14.876Z,27.51
2023-04-27T03:21:14.845Z,27.52
2023-04-27T03:22:15.196Z,27.51
2023-04-27T03:23:14.928Z,27.50
2023-04-27T03:24:14.921Z,27.53
2023-04-27T03:25:15.006Z,27.55
2023-04-27T03:26:15.040Z,27.53
2023-04-27T03:27:15.045Z,27.53
2023-04-27T03:28:15.144Z,27.52
2023-04-27T03:29:16.238Z,27.52
2023-04-27T03:30:15.133Z,27.51
2023-04-27T03:31:15.204Z,27.52
2023-04-27T03:32:15.339Z,27.53
2023-04-27T03:33:15.258Z,27.54
2023-04-27T03:34:15.292Z,27.56
2023-04-27T03:35:15.310Z,27.54
2023-04-27T03:36:15.394Z,27.54
2023-04-27T03:37:15.331Z,27.54
2023-04-27T03:38:17.114Z,27.54
2023-04-27T03:39:16.569Z,27.54
2023-04-27T03:40:15.556Z,27.53
2023-04-27T03:41:15.486Z,27.53
2023-04-27T03:42:15.507Z,27.53
2023-04-27T03:43:15.491Z,27.53
2023-04-27T03:44:15.572Z,27.55
2023-04-27T03:45:16.631Z,27.56
2023-04-27T03:46:15.812Z,27.57
2023-04-27T03:47:15.607Z,27.57
2023-04-27T03:48:15.733Z,27.57
2023-04-27T03:49:15.965Z,27.58
2023-04-27T03:50:15.737Z,27.59
2023-04-27T03:51:15.770Z,27.59
2023-04-27T03:52:15.940Z,27.59
2023-04-27T03:53:15.877Z,27.60
2023-04-27T03:54:15.901Z,27.60
2023-04-27T03:55:15.979Z,27.60
2023-04-27T03:56:15.926Z,27.58
2023-04-27T03:57:15.998Z,27.56
2023-04-27T03:58:16.086Z,27.58
2023-04-27T03:59:16.363Z,27.58
2023-04-27T04:00:16.117Z,27.59
2023-04-27T04:01:16.152Z,27.58
2023-04-27T04:02:16.349Z,27.57
2023-04-27T04:03:16.546Z,27.56
2023-04-27T04:04:16.359Z,27.54
2023-04-27T04:05:16.365Z,27.54
2023-04-27T04:06:16.294Z,27.55
2023-04-27T04:07:16.323Z,27.56
2023-04-27T04:08:17.418Z,27.58
2023-04-27T04:09:16.367Z,27.58
2023-04-27T04:10:16.399Z,27.57
2023-04-27T04:11:16.454Z,27.56
2023-04-27T04:12:16.614Z,27.55
2023-04-27T04:13:16.522Z,27.55
2023-04-27T04:14:16.522Z,27.57
2023-04-27T04:15:16.672Z,27.56
2023-04-27T04:16:16.746Z,27.55
2023-04-27T04:17:16.687Z,27.55
2023-04-27T04:18:16.726Z,27.55
2023-04-27T04:19:17.537Z,27.53
2023-04-27T04:20:16.832Z,27.52
2023-04-27T04:21:16.780Z,27.52
2023-04-27T04:22:16.779Z,27.53
2023-04-27T04:23:16.963Z,27.52
2023-04-27T04:24:17.009Z,27.52
2023-04-27T04:25:16.900Z,27.52
2023-04-27T04:26:17.931Z,27.54
2023-04-27T04:27:16.966Z,27.56
2023-04-27T04:28:18.025Z,27.55
2023-04-27T04:29:17.075Z,27.57
2023-04-27T04:30:17.141Z,27.56
2023-04-27T04:31:17.157Z,27.55
2023-04-27T04:32:17.117Z,27.56
2023-04-27T04:33:17.254Z,27.57
2023-04-27T04:34:17.219Z,27.58
2023-04-27T04:35:17.224Z,27.59
2023-04-27T04:36:17.294Z,27.57
2023-04-27T04:37:17.415Z,27.57
2023-04-27T04:38:17.480Z,27.57
2023-04-27T04:39:17.466Z,27.58
2023-04-27T04:40:17.485Z,27.58
2023-04-27T04:41:17.568Z,27.59
2023-04-27T04:42:17.510Z,27.60
2023-04-27T04:43:17.982Z,27.60
2023-04-27T04:44:17.644Z,27.60
2023-04-27T04:45:17.732Z,27.61
2023-04-27T04:46:17.658Z,27.61
2023-04-27T04:47:17.789Z,27.61
2023-04-27T04:48:17.696Z,27.62
2023-04-27T04:49:17.703Z,27.62
2023-04-27T04:50:17.836Z,27.62
2023-04-27T04:51:17.809Z,27.62
2023-04-27T04:52:17.806Z,27.61
2023-04-27T04:53:17.929Z,27.61
2023-04-27T04:54:17.865Z,27.61
2023-04-27T04:55:18.247Z,27.61
2023-04-27T04:56:17.998Z,27.62
2023-04-27T04:57:18.010Z,27.62
2023-04-27T04:58:18.196Z,27.62
2023-04-27T04:59:19.277Z,27.63
2023-04-27T05:00:18.048Z,27.63
2023-04-27T05:01:18.174Z,27.63
2023-04-27T05:02:18.198Z,27.63
2023-04-27T05:03:18.244Z,27.61
2023-04-27T05:04:18.372Z,27.59
2023-04-27T05:05:18.308Z,27.60
2023-04-27T05:06:18.442Z,27.61
2023-04-27T05:07:22.145Z,27.62
2023-04-27T05:08:19.284Z,27.62
2023-04-27T05:09:18.337Z,27.63
2023-04-27T05:10:18.369Z,27.62
2023-04-27T05:11:19.355Z,27.62
2023-04-27T05:12:18.244Z,27.61
2023-04-27T05:13:18.348Z,27.61
2023-04-27T05:14:18.343Z,27.61
2023-04-27T05:15:18.206Z,27.61
2023-04-27T05:16:18.307Z,27.60
2023-04-27T05:17:18.773Z,27.57
2023-04-27T05:18:21.016Z,27.52
2023-04-27T05:19:21.309Z,27.48
2023-04-27T05:21:37.155Z,27.39
2023-04-27T05:22:37.096Z,27.38
2023-04-27T05:23:37.067Z,27.37
2023-04-27T05:24:37.119Z,27.36
2023-04-27T05:25:37.099Z,27.36
2023-04-27T05:26:37.049Z,27.34
2023-04-27T05:27:37.057Z,27.33
2023-04-27T05:28:37.032Z,27.32
2023-04-27T05:29:37.216Z,27.31
2023-04-27T05:30:37.083Z,27.29
2023-04-27T05:31:37.067Z,27.24
2023-04-27T05:32:37.373Z,27.21
2023-04-27T05:33:37.029Z,27.17
2023-04-27T05:34:36.992Z,27.15
2023-04-27T05:35:36.997Z,27.14
2023-04-27T05:36:37.008Z,27.12
2023-04-27T05:37:37.317Z,27.11
2023-04-27T05:38:36.980Z,27.12
2023-04-27T05:39:37.036Z,27.13
2023-04-27T05:40:37.013Z,27.14
2023-04-27T05:41:36.956Z,27.12
2023-04-27T05:42:37.296Z,27.13
2023-04-27T05:43:36.942Z,27.14
2023-04-27T05:44:36.959Z,27.14
2023-04-27T05:45:37.059Z,27.14
2023-04-27T05:46:38.694Z,27.17
2023-04-27T05:47:36.934Z,27.19
2023-04-27T05:48:36.969Z,27.21
2023-04-27T05:49:36.908Z,27.26
2023-04-27T05:50:36.935Z,27.29
2023-04-27T05:51:37.053Z,27.34
2023-04-27T05:52:38.246Z,27.38
2023-04-27T05:53:36.894Z,27.42
2023-04-27T05:54:36.935Z,27.45
2023-04-27T05:55:37.018Z,27.48
2023-04-27T05:56:37.190Z,27.52
2023-04-27T05:57:37.095Z,27.56
2023-04-27T05:58:37.141Z,27.60
2023-04-27T05:59:37.153Z,27.62
2023-04-27T06:00:37.182Z,27.64
2023-04-27T06:01:37.268Z,27.66
2023-04-27T06:02:37.320Z,27.69
2023-04-27T06:03:37.348Z,27.72
2023-04-27T06:04:37.369Z,27.74
2023-04-27T06:05:37.328Z,27.77
2023-04-27T06:06:37.262Z,27.79
2023-04-27T06:07:37.878Z,27.80
2023-04-27T06:08:37.332Z,27.83
2023-04-27T06:09:37.276Z,27.86
2023-04-27T06:10:37.258Z,27.88
2023-04-27T06:11:37.296Z,27.89
2023-04-27T06:12:37.388Z,27.90
2023-04-27T06:13:37.271Z,27.92
2023-04-27T06:14:37.271Z,27.94
2023-04-27T06:15:37.436Z,27.96
2023-04-27T06:16:37.266Z,27.99
2023-04-27T06:17:37.287Z,28.01
2023-04-27T06:18:37.279Z,28.02
2023-04-27T06:19:37.250Z,28.04
2023-04-27T06:20:37.230Z,28.05
2023-04-27T06:21:37.311Z,28.07
2023-04-27T06:22:37.261Z,28.08
2023-04-27T06:23:37.284Z,28.08
2023-04-27T06:24:37.277Z,28.09
2023-04-27T06:25:37.320Z,28.12
2023-04-27T06:26:37.348Z,28.13
2023-04-27T06:27:37.665Z,28.15
2023-04-27T06:28:37.484Z,28.16
2023-04-27T06:29:37.564Z,28.17
2023-04-27T06:30:39.528Z,28.19
2023-04-27T06:31:37.747Z,28.21
2023-04-27T06:32:37.798Z,28.22
2023-04-27T06:33:37.868Z,28.23
2023-04-27T06:34:37.830Z,28.24
2023-04-27T06:35:38.347Z,28.25
2023-04-27T06:36:37.974Z,28.26
2023-04-27T06:37:38.078Z,28.27
2023-04-27T06:38:38.124Z,28.28
2023-04-27T06:39:38.171Z,28.28
2023-04-27T06:40:38.218Z,28.31
2023-04-27T06:41:38.420Z,28.32
2023-04-27T06:42:38.845Z,28.33
2023-04-27T06:43:38.375Z,28.34
2023-04-27T06:44:38.473Z,28.35
2023-04-27T06:45:38.556Z,28.36
2023-04-27T06:46:38.657Z,28.36
2023-04-27T06:47:38.874Z,28.38
2023-04-27T06:48:38.744Z,28.38
2023-04-27T06:49:38.752Z,28.37
2023-04-27T06:50:38.839Z,28.37
2023-04-27T06:51:38.891Z,28.36
2023-04-27T06:52:38.966Z,28.37
2023-04-27T06:53:38.988Z,28.38
2023-04-27T06:54:39.028Z,28.40
2023-04-27T06:55:39.966Z,28.42
2023-04-27T06:56:39.291Z,28.44
2023-04-27T06:57:39.295Z,28.46
2023-04-27T06:58:39.322Z,28.47
2023-04-27T06:59:39.364Z,28.48
2023-04-27T07:00:39.858Z,28.50
2023-04-27T07:01:39.506Z,28.49
2023-04-27T07:02:39.498Z,28.51
2023-04-27T07:03:39.680Z,28.51
2023-04-27T07:04:40.381Z,28.51
2023-04-27T07:05:39.610Z,28.51
2023-04-27T07:06:39.665Z,28.50
2023-04-27T07:07:39.705Z,28.51
2023-04-27T07:08:39.859Z,28.52
2023-04-27T07:09:39.759Z,28.53
2023-04-27T07:10:40.347Z,28.53
2023-04-27T07:11:39.838Z,28.54
2023-04-27T07:13:52.462Z,28.60
2023-04-27T07:14:52.413Z,28.60
2023-04-27T07:15:52.455Z,28.62
2023-04-27T07:16:52.439Z,28.62
2023-04-27T07:17:52.454Z,28.62
2023-04-27T07:18:52.687Z,28.63
2023-04-27T07:19:52.411Z,28.65
2023-04-27T07:20:52.542Z,28.67
2023-04-27T07:21:52.455Z,28.71
2023-04-27T07:22:52.668Z,28.75
2023-04-27T07:23:54.108Z,28.78
2023-04-27T07:24:52.629Z,28.80
2023-04-27T07:25:52.589Z,28.81
2023-04-27T07:26:52.635Z,28.83
2023-04-27T07:27:52.784Z,28.85
2023-04-27T07:28:52.636Z,28.87
2023-04-27T07:29:52.656Z,28.87
2023-04-27T07:30:57.658Z,28.87
2023-04-27T07:31:52.721Z,28.86
2023-04-27T07:32:52.764Z,28.84
2023-04-27T07:33:52.654Z,28.83
2023-04-27T07:34:54.325Z,28.81
2023-04-27T07:35:52.645Z,28.80
2023-04-27T07:36:52.709Z,28.77
2023-04-27T07:37:52.617Z,28.76
2023-04-27T07:38:52.651Z,28.73
2023-04-27T07:39:52.603Z,28.73
2023-04-27T07:40:52.639Z,28.72
2023-04-27T07:41:52.643Z,28.72
2023-04-27T07:42:52.599Z,28.71
2023-04-27T07:43:52.592Z,28.70
2023-04-27T07:44:52.701Z,28.69
2023-04-27T07:45:52.645Z,28.69
2023-04-27T07:46:52.541Z,28.68
2023-04-27T07:47:52.615Z,28.66
2023-04-27T07:48:52.655Z,28.64
2023-04-27T07:49:52.636Z,28.64
2023-04-27T07:50:52.711Z,28.67
2023-04-27T07:51:54.802Z,28.68
2023-04-27T07:52:52.752Z,28.72
2023-04-27T07:53:52.759Z,28.72
2023-04-27T07:54:52.826Z,28.74
2023-04-27T07:55:52.870Z,28.77
2023-04-27T07:56:52.822Z,28.80
2023-04-27T07:57:52.834Z,28.82
2023-04-27T07:58:52.869Z,28.84
2023-04-27T07:59:52.872Z,28.86
2023-04-27T08:00:52.905Z,28.87
2023-04-27T08:01:55.710Z,28.86
2023-04-27T08:02:53.114Z,28.86
2023-04-27T08:03:53.114Z,28.87
2023-04-27T08:04:53.348Z,28.87
2023-04-27T08:05:53.102Z,28.89
2023-04-27T08:06:53.365Z,28.89
2023-04-27T08:07:53.161Z,28.89
2023-04-27T08:08:52.923Z,28.90
2023-04-27T08:09:52.918Z,28.92
2023-04-27T08:10:52.885Z,28.94
2023-04-27T08:11:52.840Z,28.94
2023-04-27T08:12:52.849Z,28.96
2023-04-27T08:13:53.190Z,28.97
2023-04-27T08:14:52.844Z,28.98
2023-04-27T08:15:53.073Z,29.00
2023-04-27T08:16:52.908Z,29.01
2023-04-27T08:17:52.858Z,29.03
2023-04-27T08:18:52.815Z,29.03
2023-04-27T08:19:52.791Z,29.04
2023-04-27T08:20:52.818Z,29.04
2023-04-27T08:21:52.903Z,29.06
2023-04-27T08:22:55.655Z,29.08
2023-04-27T08:23:52.794Z,29.08
2023-04-27T08:24:52.782Z,29.10
2023-04-27T08:25:52.761Z,29.11
2023-04-27T08:26:52.758Z,29.12
2023-04-27T08:27:52.732Z,29.12
2023-04-27T08:28:52.813Z,29.12
2023-04-27T08:29:52.778Z,29.15
2023-04-27T08:30:52.793Z,29.16
2023-04-27T08:31:53.799Z,29.17
2023-04-27T08:32:52.794Z,29.17
2023-04-27T08:33:52.723Z,29.18
2023-04-27T08:34:52.704Z,29.20
2023-04-27T08:35:52.720Z,29.21
2023-04-27T08:36:52.755Z,29.21
2023-04-27T08:37:52.676Z,29.22
2023-04-27T08:38:52.666Z,29.24
2023-04-27T08:39:52.651Z,29.25
2023-04-27T08:40:52.690Z,29.26
2023-04-27T08:41:52.668Z,29.27
2023-04-27T08:42:52.650Z,29.29
2023-04-27T08:43:52.696Z,29.31
2023-04-27T08:44:52.640Z,29.33
2023-04-27T08:45:52.750Z,29.33
2023-04-27T08:46:52.695Z,29.35
2023-04-27T08:47:52.763Z,29.34
2023-04-27T08:48:52.643Z,29.33
2023-04-27T08:49:52.649Z,29.31
2023-04-27T08:50:52.638Z,29.29
2023-04-27T08:51:52.609Z,29.30
2023-04-27T08:52:52.618Z,29.27
2023-04-27T08:53:52.714Z,29.22
2023-04-27T08:54:52.623Z,29.17
2023-04-27T08:55:52.616Z,29.09
2023-04-27T08:56:52.558Z,29.03
2023-04-27T08:57:52.555Z,28.97
2023-04-27T08:58:52.753Z,28.91
2023-04-27T08:59:52.544Z,28.85
2023-04-27T09:00:52.838Z,28.80
2023-04-27T09:01:52.658Z,28.74
2023-04-27T09:02:52.836Z,28.70
2023-04-27T09:03:52.582Z,28.66
2023-04-27T09:04:52.588Z,28.62
2023-04-27T09:06:03.414Z,28.56
2023-04-27T09:06:53.495Z,28.52
2023-04-27T09:07:52.502Z,28.46
2023-04-27T09:08:52.578Z,28.42
2023-04-27T09:09:52.556Z,28.38
2023-04-27T09:10:52.560Z,28.32
2023-04-27T09:11:52.472Z,28.28
2023-04-27T09:12:52.484Z,28.24
2023-04-27T09:13:52.464Z,28.22
2023-04-27T09:14:52.436Z,28.19
2023-04-27T09:15:52.496Z,28.16
2023-04-27T09:16:52.675Z,28.13
2023-04-27T09:17:52.584Z,28.10
2023-04-27T09:18:52.692Z,28.02
2023-04-27T09:19:52.690Z,27.89
2023-04-27T09:20:52.690Z,27.83
2023-04-27T09:21:53.158Z,27.80
2023-04-27T09:22:52.800Z,27.78
2023-04-27T09:23:54.745Z,27.79
2023-04-27T09:24:52.739Z,27.79
2023-04-27T09:25:52.715Z,27.81
2023-04-27T09:26:52.784Z,27.82
2023-04-27T09:27:53.045Z,27.80
2023-04-27T09:28:52.807Z,27.79
2023-04-27T09:29:52.678Z,27.78
2023-04-27T09:30:52.694Z,27.77
2023-04-27T09:31:52.786Z,27.76
2023-04-27T09:32:52.774Z,27.75
2023-04-27T09:33:52.631Z,27.73
2023-04-27T09:34:52.669Z,27.70
2023-04-27T09:35:52.623Z,27.69
2023-04-27T09:36:52.709Z,27.68
2023-04-27T09:37:52.989Z,27.67
2023-04-27T09:38:54.024Z,27.68
2023-04-27T09:41:11.758Z,27.65
2023-04-27T09:42:11.537Z,27.67
2023-04-27T09:43:11.501Z,27.71
2023-04-27T09:45:32.160Z,27.65
2023-04-27T09:46:34.210Z,27.68
2023-04-27T09:47:30.561Z,27.68
2023-04-27T09:48:30.956Z,27.68
2023-04-27T09:49:32.238Z,27.67
2023-04-27T09:50:30.739Z,27.68
2023-04-27T09:51:30.726Z,27.70
2023-04-27T09:52:30.643Z,27.70
2023-04-27T09:53:34.466Z,27.72
2023-04-27T09:54:31.523Z,27.73
2023-04-27T09:55:31.333Z,27.75
2023-04-27T09:56:31.359Z,27.78
2023-04-27T09:57:30.598Z,27.79
2023-04-27T09:58:31.575Z,27.79
2023-04-27T09:59:30.585Z,27.76
2023-04-27T10:00:31.533Z,27.77
2023-04-27T10:01:30.797Z,27.79
2023-04-27T10:02:33.194Z,27.80
2023-04-27T10:03:32.202Z,27.80
2023-04-27T10:05:49.233Z,27.73
2023-04-27T10:06:49.185Z,27.77
2023-04-27T10:07:49.169Z,27.82
2023-04-27T10:08:49.169Z,27.85
2023-04-27T10:09:49.162Z,27.86
2023-04-27T10:10:49.232Z,27.86
2023-04-27T10:11:49.227Z,27.87
2023-04-27T10:12:49.143Z,27.89
2023-04-27T10:13:49.116Z,27.91
2023-04-27T10:14:49.135Z,27.93
2023-04-27T10:15:49.149Z,27.94
2023-04-27T10:16:49.196Z,27.95
2023-04-27T10:17:49.157Z,27.94
2023-04-27T10:18:49.077Z,27.92
2023-04-27T10:19:49.118Z,27.93
2023-04-27T10:20:49.097Z,27.92
2023-04-27T10:21:49.324Z,27.83
2023-04-27T10:22:49.138Z,27.74
2023-04-27T10:23:49.090Z,27.64
2023-04-27T10:24:49.072Z,27.53
2023-04-27T10:25:49.033Z,27.44
2023-04-27T10:26:49.085Z,27.29
2023-04-27T10:27:49.058Z,27.11
2023-04-27T10:28:49.049Z,26.90
2023-04-27T10:29:49.053Z,26.74
2023-04-27T10:30:49.258Z,26.60
2023-04-27T10:31:49.446Z,26.48
2023-04-27T10:32:49.028Z,26.32
2023-04-27T10:33:48.995Z,26.15
2023-04-27T10:34:49.073Z,26.03
2023-04-27T10:35:49.075Z,25.92
2023-04-27T10:36:49.051Z,25.79
2023-04-27T10:37:48.959Z,25.73
2023-04-27T10:38:49.015Z,25.66
2023-04-27T10:39:49.930Z,25.60
2023-04-27T10:40:48.947Z,25.54
2023-04-27T10:41:48.975Z,25.48
2023-04-27T10:42:48.964Z,25.43
2023-04-27T10:43:48.939Z,25.43
2023-04-27T10:44:48.918Z,25.40
2023-04-27T10:45:48.992Z,25.37
2023-04-27T10:46:48.958Z,25.36
2023-04-27T10:47:48.929Z,25.34
2023-04-27T10:48:48.906Z,25.36
2023-04-27T10:49:48.920Z,25.36
2023-04-27T10:50:48.921Z,25.40
2023-04-27T10:51:48.941Z,25.47
2023-04-27T10:52:48.862Z,25.56
2023-04-27T10:53:48.882Z,25.63
2023-04-27T10:54:48.906Z,25.70
2023-04-27T10:55:48.862Z,25.77
2023-04-27T10:56:48.875Z,25.83
2023-04-27T10:57:48.928Z,25.92
2023-04-27T10:58:49.630Z,25.97
2023-04-27T10:59:48.943Z,26.01
2023-04-27T11:00:48.966Z,26.06
2023-04-27T11:01:49.024Z,26.09
2023-04-27T11:02:49.100Z,26.14
2023-04-27T11:03:49.128Z,26.18
2023-04-27T11:04:49.138Z,26.20
2023-04-27T11:05:49.061Z,26.22
2023-04-27T11:06:49.056Z,26.25
2023-04-27T11:07:49.030Z,26.28
2023-04-27T11:08:49.050Z,26.30
2023-04-27T11:09:49.440Z,26.33
2023-04-27T11:10:49.090Z,26.34
2023-04-27T11:11:49.100Z,26.37
2023-04-27T11:12:49.129Z,26.40
2023-04-27T11:13:49.109Z,26.41
2023-04-27T11:14:49.879Z,26.42
2023-04-27T11:15:49.190Z,26.42
2023-04-27T11:16:49.188Z,26.44
2023-04-27T11:17:49.219Z,26.46
2023-04-27T11:18:49.170Z,26.49
2023-04-27T11:19:49.115Z,26.52
2023-04-27T11:20:49.153Z,26.54
2023-04-27T11:21:49.149Z,26.59
2023-04-27T11:22:49.240Z,26.59
2023-04-27T11:23:49.151Z,26.61
2023-04-27T11:24:49.164Z,26.63
2023-04-27T11:25:49.187Z,26.64
2023-04-27T11:26:49.220Z,26.66
2023-04-27T11:27:49.250Z,26.68
2023-04-27T11:28:49.355Z,26.70
2023-04-27T11:29:49.406Z,26.70
2023-04-27T11:30:49.480Z,26.72
2023-04-27T11:31:49.931Z,26.74
2023-04-27T11:32:49.601Z,26.76
2023-04-27T11:33:49.652Z,26.77
2023-04-27T11:34:49.703Z,26.76
2023-04-27T11:35:49.781Z,26.77
2023-04-27T11:36:49.911Z,26.76
2023-04-27T11:37:49.875Z,26.74
2023-04-27T11:38:50.010Z,26.73
2023-04-27T11:39:50.067Z,26.74
2023-04-27T11:40:50.067Z,26.75
2023-04-27T11:41:50.161Z,26.76
2023-04-27T11:42:50.209Z,26.76
2023-04-27T11:43:50.292Z,26.76
2023-04-27T11:44:50.305Z,26.76
2023-04-27T11:45:50.386Z,26.77
2023-04-27T11:46:50.499Z,26.76
2023-04-27T11:47:50.591Z,26.74
2023-04-27T11:48:50.535Z,26.74
2023-04-27T11:49:50.628Z,26.77
2023-04-27T11:50:50.588Z,26.79
2023-04-27T11:51:50.673Z,26.83
2023-04-27T11:52:51.682Z,26.87
2023-04-27T11:53:50.686Z,26.90
2023-04-27T11:54:50.815Z,26.95
2023-04-27T11:55:50.821Z,26.97
2023-04-27T11:56:50.868Z,27.02
2023-04-27T11:57:50.942Z,27.05
2023-04-27T11:58:51.043Z,27.08
2023-04-27T11:59:51.070Z,27.12
2023-04-27T12:00:51.123Z,27.14
2023-04-27T12:01:51.227Z,27.18
2023-04-27T12:02:51.453Z,27.22
2023-04-27T12:03:51.345Z,27.23
2023-04-27T12:04:51.781Z,27.25
2023-04-27T12:05:51.458Z,27.28
2023-04-27T12:06:51.385Z,27.30
2023-04-27T12:07:51.426Z,27.32
2023-04-27T12:08:51.432Z,27.34
2023-04-27T12:09:51.529Z,27.36
2023-04-27T12:10:51.527Z,27.37
2023-04-27T12:11:51.598Z,27.39
2023-04-27T12:12:51.599Z,27.39
2023-04-27T12:13:51.581Z,27.41
2023-04-27T12:14:51.636Z,27.43
2023-04-27T12:15:51.644Z,27.43
2023-04-27T12:16:51.769Z,27.45
2023-04-27T12:17:51.703Z,27.47
2023-04-27T12:18:51.803Z,27.49
2023-04-27T12:19:51.756Z,27.50
2023-04-27T12:20:51.864Z,27.52
2023-04-27T12:21:51.811Z,27.54
2023-04-27T12:22:51.808Z,27.54
2023-04-27T12:23:51.791Z,27.55
2023-04-27T12:24:51.807Z,27.56
2023-04-27T12:25:51.839Z,27.57
2023-04-27T12:26:51.879Z,27.57
2023-04-27T12:27:51.860Z,27.58
2023-04-27T12:28:51.897Z,27.59
2023-04-27T12:29:51.908Z,27.58
2023-04-27T12:30:51.989Z,27.60
2023-04-27T12:31:51.966Z,27.60
2023-04-27T12:32:51.962Z,27.62
2023-04-27T12:33:51.952Z,27.62
2023-04-27T12:34:52.446Z,27.63
2023-04-27T12:35:51.978Z,27.64
2023-04-27T12:36:52.027Z,27.63
2023-04-27T12:37:51.972Z,27.64
2023-04-27T12:38:51.993Z,27.65
2023-04-27T12:39:52.057Z,27.65
2023-04-27T12:40:52.040Z,27.67
2023-04-27T12:41:52.041Z,27.67
2023-04-27T12:42:52.005Z,27.69
2023-04-27T12:43:52.028Z,27.70
2023-04-27T12:44:52.032Z,27.70
2023-04-27T12:45:52.111Z,27.71
2023-04-27T12:46:52.527Z,27.71
2023-04-27T12:48:01.645Z,27.72
2023-04-27T12:48:53.127Z,27.72
2023-04-27T12:49:52.058Z,27.73
2023-04-27T12:50:52.056Z,27.75
2023-04-27T12:51:52.578Z,27.76
2023-04-27T12:52:52.062Z,27.75
2023-04-27T12:53:52.016Z,27.76
2023-04-27T12:54:51.992Z,27.76
2023-04-27T12:55:51.991Z,27.76
2023-04-27T12:56:51.995Z,27.77
2023-04-27T12:57:51.972Z,27.78
2023-04-27T12:58:52.053Z,27.78
2023-04-27T12:59:52.202Z,27.77
2023-04-27T13:00:51.988Z,27.78